Terminal Aerodrome Forecast
Issued by NWS Wilmington, OH

Current Version | Previous Version | Graphics & Text | Print | Product List | Glossary On
Versions: 1 2 3 4 5 6 7 8 9 10 11 12 13 14 15 16 17 18
861
FTUS41 KILN 172337
TAFDAY
TAF
KDAY 172337Z 1800/1824 22003KT P6SM SCT080
     FM181200 18004KT P6SM BKN100
     FM181600 20005KT P6SM VCSH SCT050 BKN080=

USA.gov is the U.S. government's official web portal to all federal, state and local government web resources and services.